sensor_id;sensor_type;location;lat;lon;timestamp;P1;durP1;ratioP1;P2;durP2;ratioP2
10142;SDS011;5112;54.088;13.446;2022-10-16T00:03:58;3.40;;;3.20;;
10142;SDS011;5112;54.088;13.446;2022-10-16T00:14:02;3.20;;;3.00;;
10142;SDS011;5112;54.088;13.446;2022-10-16T00:24:06;3.40;;;3.20;;
10142;SDS011;5112;54.088;13.446;2022-10-16T00:34:11;3.57;;;3.27;;
10142;SDS011;5112;54.088;13.446;2022-10-16T00:54:45;3.20;;;2.90;;
10142;SDS011;5112;54.088;13.446;2022-10-16T01:04:48;3.50;;;3.20;;
10142;SDS011;5112;54.088;13.446;2022-10-16T01:14:54;3.60;;;3.30;;
10142;SDS011;5112;54.088;13.446;2022-10-16T01:24:59;3.47;;;3.20;;
10142;SDS011;5112;54.088;13.446;2022-10-16T01:35:09;4.10;;;3.80;;
10142;SDS011;5112;54.088;13.446;2022-10-16T01:45:15;4.00;;;3.70;;
10142;SDS011;5112;54.088;13.446;2022-10-16T01:55:22;4.43;;;3.70;;
10142;SDS011;5112;54.088;13.446;2022-10-16T02:05:28;3.70;;;3.40;;
10142;SDS011;5112;54.088;13.446;2022-10-16T02:15:36;4.03;;;3.70;;
10142;SDS011;5112;54.088;13.446;2022-10-16T02:25:39;4.50;;;4.20;;
10142;SDS011;5112;54.088;13.446;2022-10-16T02:36:03;4.00;;;3.70;;
10142;SDS011;5112;54.088;13.446;2022-10-16T02:46:05;4.60;;;4.30;;
10142;SDS011;5112;54.088;13.446;2022-10-16T02:56:08;4.73;;;4.40;;
10142;SDS011;5112;54.088;13.446;2022-10-16T03:06:10;4.90;;;4.23;;
10142;SDS011;5112;54.088;13.446;2022-10-16T03:16:13;5.43;;;4.17;;
10142;SDS011;5112;54.088;13.446;2022-10-16T03:26:15;5.20;;;4.80;;
10142;SDS011;5112;54.088;13.446;2022-10-16T03:36:18;5.13;;;4.63;;
10142;SDS011;5112;54.088;13.446;2022-10-16T03:46:19;5.37;;;4.87;;
10142;SDS011;5112;54.088;13.446;2022-10-16T03:56:22;5.67;;;5.17;;
10142;SDS011;5112;54.088;13.446;2022-10-16T04:06:24;6.37;;;5.27;;
10142;SDS011;5112;54.088;13.446;2022-10-16T04:16:27;5.10;;;4.70;;
10142;SDS011;5112;54.088;13.446;2022-10-16T04:26:29;6.50;;;5.90;;
10142;SDS011;5112;54.088;13.446;2022-10-16T04:36:32;5.97;;;5.57;;
10142;SDS011;5112;54.088;13.446;2022-10-16T04:46:34;4.80;;;4.50;;
10142;SDS011;5112;54.088;13.446;2022-10-16T04:56:37;5.47;;;5.03;;
10142;SDS011;5112;54.088;13.446;2022-10-16T05:06:47;5.20;;;4.80;;
10142;SDS011;5112;54.088;13.446;2022-10-16T05:16:50;4.77;;;4.47;;
10142;SDS011;5112;54.088;13.446;2022-10-16T05:26:52;5.80;;;5.30;;
10142;SDS011;5112;54.088;13.446;2022-10-16T05:36:55;5.20;;;4.70;;
10142;SDS011;5112;54.088;13.446;2022-10-16T05:46:57;4.87;;;4.47;;
10142;SDS011;5112;54.088;13.446;2022-10-16T05:57:00;4.73;;;4.33;;
10142;SDS011;5112;54.088;13.446;2022-10-16T06:07:02;5.00;;;4.47;;
10142;SDS011;5112;54.088;13.446;2022-10-16T06:17:05;5.40;;;4.90;;
10142;SDS011;5112;54.088;13.446;2022-10-16T06:27:07;6.23;;;4.07;;
10142;SDS011;5112;54.088;13.446;2022-10-16T06:37:10;4.60;;;4.07;;
10142;SDS011;5112;54.088;13.446;2022-10-16T06:47:11;4.23;;;3.93;;
10142;SDS011;5112;54.088;13.446;2022-10-16T06:57:15;4.30;;;4.00;;
10142;SDS011;5112;54.088;13.446;2022-10-16T07:07:17;4.63;;;4.20;;
10142;SDS011;5112;54.088;13.446;2022-10-16T07:17:20;3.37;;;3.07;;
10142;SDS011;5112;54.088;13.446;2022-10-16T07:27:22;22.00;;;6.33;;
10142;SDS011;5112;54.088;13.446;2022-10-16T07:37:26;7.03;;;5.50;;
10142;SDS011;5112;54.088;13.446;2022-10-16T07:47:27;3.00;;;2.70;;
10142;SDS011;5112;54.088;13.446;2022-10-16T07:57:30;3.93;;;3.30;;
10142;SDS011;5112;54.088;13.446;2022-10-16T08:07:32;2.63;;;2.40;;
10142;SDS011;5112;54.088;13.446;2022-10-16T08:17:35;3.80;;;2.37;;
10142;SDS011;5112;54.088;13.446;2022-10-16T08:27:37;3.10;;;2.50;;
10142;SDS011;5112;54.088;13.446;2022-10-16T08:37:40;3.00;;;2.40;;
10142;SDS011;5112;54.088;13.446;2022-10-16T08:47:44;2.87;;;2.13;;
10142;SDS011;5112;54.088;13.446;2022-10-16T08:57:51;2.33;;;2.13;;
10142;SDS011;5112;54.088;13.446;2022-10-16T09:07:55;3.00;;;2.00;;
10142;SDS011;5112;54.088;13.446;2022-10-16T09:18:06;2.20;;;1.70;;
10142;SDS011;5112;54.088;13.446;2022-10-16T09:28:16;3.17;;;1.30;;
10142;SDS011;5112;54.088;13.446;2022-10-16T09:38:24;1.50;;;1.40;;
10142;SDS011;5112;54.088;13.446;2022-10-16T09:48:31;2.20;;;1.17;;
10142;SDS011;5112;54.088;13.446;2022-10-16T09:58:41;1.40;;;1.27;;
10142;SDS011;5112;54.088;13.446;2022-10-16T10:08:57;3.13;;;1.00;;
10142;SDS011;5112;54.088;13.446;2022-10-16T10:19:09;2.20;;;1.50;;
10142;SDS011;5112;54.088;13.446;2022-10-16T10:29:20;3.57;;;1.70;;
10142;SDS011;5112;54.088;13.446;2022-10-16T10:39:42;0.90;;;0.90;;
10142;SDS011;5112;54.088;13.446;2022-10-16T10:49:53;1.40;;;0.90;;
10142;SDS011;5112;54.088;13.446;2022-10-16T11:00:05;2.43;;;1.20;;
10142;SDS011;5112;54.088;13.446;2022-10-16T11:10:18;2.77;;;1.37;;
10142;SDS011;5112;54.088;13.446;2022-10-16T11:20:25;2.30;;;1.73;;
10142;SDS011;5112;54.088;13.446;2022-10-16T11:30:29;1.30;;;1.20;;
10142;SDS011;5112;54.088;13.446;2022-10-16T11:40:37;1.20;;;1.20;;
10142;SDS011;5112;54.088;13.446;2022-10-16T11:50:43;2.17;;;1.60;;
10142;SDS011;5112;54.088;13.446;2022-10-16T12:00:55;2.13;;;1.30;;
10142;SDS011;5112;54.088;13.446;2022-10-16T12:11:06;1.27;;;1.17;;
10142;SDS011;5112;54.088;13.446;2022-10-16T12:21:11;4.40;;;0.90;;
10142;SDS011;5112;54.088;13.446;2022-10-16T12:31:15;1.17;;;1.07;;
10142;SDS011;5112;54.088;13.446;2022-10-16T12:41:25;0.90;;;0.90;;
10142;SDS011;5112;54.088;13.446;2022-10-16T12:51:33;1.43;;;1.07;;
10142;SDS011;5112;54.088;13.446;2022-10-16T13:01:40;3.13;;;1.00;;
10142;SDS011;5112;54.088;13.446;2022-10-16T13:12:05;2.10;;;0.93;;
10142;SDS011;5112;54.088;13.446;2022-10-16T13:22:21;1.10;;;1.00;;
10142;SDS011;5112;54.088;13.446;2022-10-16T13:32:27;1.00;;;0.90;;
10142;SDS011;5112;54.088;13.446;2022-10-16T13:42:31;1.33;;;1.10;;
10142;SDS011;5112;54.088;13.446;2022-10-16T13:52:34;1.10;;;1.00;;
10142;SDS011;5112;54.088;13.446;2022-10-16T14:02:38;2.70;;;1.50;;
10142;SDS011;5112;54.088;13.446;2022-10-16T14:12:41;1.00;;;0.90;;
10142;SDS011;5112;54.088;13.446;2022-10-16T14:22:44;1.10;;;1.00;;
10142;SDS011;5112;54.088;13.446;2022-10-16T14:32:53;2.17;;;1.20;;
10142;SDS011;5112;54.088;13.446;2022-10-16T14:42:58;1.07;;;0.97;;
10142;SDS011;5112;54.088;13.446;2022-10-16T14:53:01;3.17;;;1.00;;
10142;SDS011;5112;54.088;13.446;2022-10-16T15:03:10;2.30;;;1.20;;
10142;SDS011;5112;54.088;13.446;2022-10-16T15:13:13;1.57;;;0.90;;
10142;SDS011;5112;54.088;13.446;2022-10-16T15:23:16;2.77;;;1.00;;
10142;SDS011;5112;54.088;13.446;2022-10-16T15:33:22;1.87;;;1.30;;
10142;SDS011;5112;54.088;13.446;2022-10-16T15:43:28;1.87;;;1.20;;
10142;SDS011;5112;54.088;13.446;2022-10-16T15:53:30;1.40;;;1.30;;
10142;SDS011;5112;54.088;13.446;2022-10-16T16:03:32;3.07;;;1.90;;
10142;SDS011;5112;54.088;13.446;2022-10-16T16:13:35;1.80;;;1.70;;
10142;SDS011;5112;54.088;13.446;2022-10-16T16:23:39;1.70;;;1.60;;
10142;SDS011;5112;54.088;13.446;2022-10-16T16:33:41;1.57;;;1.20;;
10142;SDS011;5112;54.088;13.446;2022-10-16T16:43:44;2.47;;;1.30;;
10142;SDS011;5112;54.088;13.446;2022-10-16T16:53:47;2.40;;;2.00;;
10142;SDS011;5112;54.088;13.446;2022-10-16T17:03:52;1.33;;;1.20;;
10142;SDS011;5112;54.088;13.446;2022-10-16T17:13:56;1.77;;;1.67;;
10142;SDS011;5112;54.088;13.446;2022-10-16T17:24:00;2.87;;;2.10;;
10142;SDS011;5112;54.088;13.446;2022-10-16T17:34:02;3.37;;;1.90;;
10142;SDS011;5112;54.088;13.446;2022-10-16T17:44:07;3.33;;;2.30;;
10142;SDS011;5112;54.088;13.446;2022-10-16T17:54:09;5.07;;;4.57;;
10142;SDS011;5112;54.088;13.446;2022-10-16T18:04:15;5.07;;;3.53;;
10142;SDS011;5112;54.088;13.446;2022-10-16T18:14:17;4.87;;;2.80;;
10142;SDS011;5112;54.088;13.446;2022-10-16T18:24:20;3.83;;;2.80;;
10142;SDS011;5112;54.088;13.446;2022-10-16T18:34:24;3.27;;;2.97;;
10142;SDS011;5112;54.088;13.446;2022-10-16T18:44:28;2.93;;;2.73;;
10142;SDS011;5112;54.088;13.446;2022-10-16T18:54:30;2.77;;;2.57;;
10142;SDS011;5112;54.088;13.446;2022-10-16T19:04:33;6.23;;;2.60;;
10142;SDS011;5112;54.088;13.446;2022-10-16T19:14:36;2.53;;;2.33;;
10142;SDS011;5112;54.088;13.446;2022-10-16T19:24:39;6.90;;;4.80;;
10142;SDS011;5112;54.088;13.446;2022-10-16T19:34:41;6.97;;;6.27;;
10142;SDS011;5112;54.088;13.446;2022-10-16T19:44:46;9.60;;;6.50;;
10142;SDS011;5112;54.088;13.446;2022-10-16T19:54:49;5.30;;;4.73;;
10142;SDS011;5112;54.088;13.446;2022-10-16T20:04:54;4.70;;;3.27;;
10142;SDS011;5112;54.088;13.446;2022-10-16T20:14:56;3.50;;;2.90;;
10142;SDS011;5112;54.088;13.446;2022-10-16T20:24:59;3.87;;;3.07;;
10142;SDS011;5112;54.088;13.446;2022-10-16T20:35:00;4.83;;;3.53;;
10142;SDS011;5112;54.088;13.446;2022-10-16T20:45:04;2.70;;;2.50;;
10142;SDS011;5112;54.088;13.446;2022-10-16T20:55:07;3.20;;;2.90;;
10142;SDS011;5112;54.088;13.446;2022-10-16T21:05:10;3.20;;;2.90;;
10142;SDS011;5112;54.088;13.446;2022-10-16T21:15:12;3.50;;;3.20;;
10142;SDS011;5112;54.088;13.446;2022-10-16T21:25:15;3.80;;;3.10;;
10142;SDS011;5112;54.088;13.446;2022-10-16T21:35:17;6.60;;;4.97;;
10142;SDS011;5112;54.088;13.446;2022-10-16T21:45:20;4.50;;;3.87;;
10142;SDS011;5112;54.088;13.446;2022-10-16T21:55:21;7.77;;;5.63;;
10142;SDS011;5112;54.088;13.446;2022-10-16T22:05:24;8.33;;;6.90;;
10142;SDS011;5112;54.088;13.446;2022-10-16T22:15:26;7.90;;;5.90;;
10142;SDS011;5112;54.088;13.446;2022-10-16T22:25:29;5.70;;;5.20;;
10142;SDS011;5112;54.088;13.446;2022-10-16T22:35:34;5.17;;;4.60;;
10142;SDS011;5112;54.088;13.446;2022-10-16T22:45:38;5.80;;;4.47;;
10142;SDS011;5112;54.088;13.446;2022-10-16T22:55:40;5.23;;;4.83;;
10142;SDS011;5112;54.088;13.446;2022-10-16T23:05:43;7.03;;;5.67;;
10142;SDS011;5112;54.088;13.446;2022-10-16T23:15:44;4.53;;;4.23;;
10142;SDS011;5112;54.088;13.446;2022-10-16T23:25:47;4.03;;;3.33;;
10142;SDS011;5112;54.088;13.446;2022-10-16T23:35:49;3.23;;;3.03;;
10142;SDS011;5112;54.088;13.446;2022-10-16T23:45:52;2.93;;;2.73;;
10142;SDS011;5112;54.088;13.446;2022-10-16T23:55:54;3.60;;;2.83;;
